Time;durP1;ratioP1;P1;durP2;ratioP2;P2;SDS_P1;SDS_P2;PMS_P1;PMS_P2;Temp;Humidity;BMP_temperature;BMP_pressure;BME280_temperature;BME280_humidity;BME280_pressure;Samples;Min_cycle;Max_cycle;Signal;HPM_P1;HPM_P2
2021/12/04 00:02:32;;;;;;;15.53;5.83;;;;;;;-2.72;86.61;98585.66;4225368;83;43888;-76
2021/12/04 00:08:35;;;;;;;16.20;5.15;;;;;;;-2.90;89.53;98576.52;4207381;83;43911;-76
2021/12/04 00:14:37;;;;;;;17.23;5.90;;;;;;;-2.99;89.77;98576.94;4264679;83;43981;-79
2021/12/04 00:20:41;;;;;;;11.85;5.30;;;;;;;-2.97;85.17;98568.39;4241904;83;43213;-77
2021/12/04 00:26:42;;;;;;;14.10;5.75;;;;;;;-3.08;83.03;98579.51;4228801;83;43938;-77
2021/12/04 00:32:53;;;;;;;14.80;5.50;;;;;;;-3.09;80.43;98567.34;4256465;83;43943;-77
2021/12/04 00:51:27;;;;;;;15.25;5.25;;;;;;;-3.28;85.48;98578.89;4229784;83;43887;-78
2021/12/04 00:57:28;;;;;;;11.93;4.58;;;;;;;-3.26;85.41;98574.80;4198902;83;43233;-76
2021/12/04 01:03:30;;;;;;;10.32;4.22;;;;;;;-3.23;85.72;98572.70;4183611;83;43220;-75
2021/12/04 01:09:31;;;;;;;10.70;4.20;;;;;;;-3.13;82.97;98554.66;4228890;83;43195;-77
2021/12/04 01:15:32;;;;;;;12.58;4.25;;;;;;;-3.01;81.44;98557.86;4250525;83;43191;-78
2021/12/04 01:21:34;;;;;;;9.33;4.08;;;;;;;-3.07;80.97;98548.78;4278667;83;42955;-77
2021/12/04 01:27:37;;;;;;;10.38;4.53;;;;;;;-3.09;80.54;98543.67;4173119;83;43242;-78
2021/12/04 01:33:40;;;;;;;10.00;4.10;;;;;;;-3.13;82.21;98527.04;4232209;83;42956;-78
2021/12/04 01:39:41;;;;;;;8.43;3.77;;;;;;;-2.97;80.78;98524.52;4184252;85;42752;-77
2021/12/04 01:45:42;;;;;;;7.55;2.95;;;;;;;-2.95;79.68;98526.48;4111171;85;42839;-78
2021/12/04 01:51:44;;;;;;;8.55;3.22;;;;;;;-3.00;79.73;98530.09;4196614;84;42704;-78
2021/12/04 01:57:46;;;;;;;7.95;3.45;;;;;;;-2.91;80.08;98527.01;4191476;84;42712;-80
2021/12/04 02:03:47;;;;;;;8.25;3.47;;;;;;;-3.00;80.51;98518.26;4196427;84;42696;-81
2021/12/04 02:09:48;;;;;;;7.67;3.40;;;;;;;-2.95;79.83;98513.84;4214454;84;42712;-80
2021/12/04 02:15:50;;;;;;;7.45;3.00;;;;;;;-3.06;79.75;98508.86;4084951;86;42262;-80
2021/12/04 02:21:51;;;;;;;9.85;3.40;;;;;;;-3.08;79.91;98491.91;4220692;84;43220;-80
2021/12/04 02:27:53;;;;;;;7.47;2.80;;;;;;;-3.24;80.63;98472.92;4225557;83;42183;-77
2021/12/04 02:33:54;;;;;;;5.67;2.77;;;;;;;-3.27;81.33;98465.36;4247032;83;43423;-77
2021/12/04 02:39:59;;;;;;;7.22;2.90;;;;;;;-3.26;81.79;98447.28;4250275;82;41809;-76
2021/12/04 02:46:01;;;;;;;6.87;3.02;;;;;;;-3.44;83.75;98441.59;4224346;83;28493;-78
2021/12/04 02:52:05;;;;;;;5.70;2.55;;;;;;;-3.48;85.12;98427.60;4220690;83;42629;-77
2021/12/04 02:58:06;;;;;;;5.75;2.67;;;;;;;-3.32;82.11;98438.22;4186104;84;43425;-81
2021/12/04 03:04:12;;;;;;;8.38;2.85;;;;;;;-3.31;82.66;98431.98;4166348;84;42735;-77
2021/12/04 03:10:14;;;;;;;8.27;2.67;;;;;;;-3.40;84.43;98436.34;4200337;84;28465;-79
2021/12/04 03:16:15;;;;;;;8.78;3.17;;;;;;;-3.57;86.78;98421.48;4141028;84;42699;-76
2021/12/04 03:22:18;;;;;;;7.80;3.20;;;;;;;-3.72;92.29;98417.28;4166248;84;42705;-77
2021/12/04 03:28:19;;;;;;;7.42;3.10;;;;;;;-3.77;95.40;98419.06;4199875;85;42184;-76
2021/12/04 03:46:44;;;;;;;9.65;3.55;;;;;;;-4.14;100.00;98420.92;4174400;85;42681;-75
2021/12/04 03:52:45;;;;;;;8.40;3.15;;;;;;;-4.34;100.00;98419.77;4177792;84;42678;-75
2021/12/04 03:58:47;;;;;;;8.93;3.20;;;;;;;-4.29;100.00;98404.05;4154694;85;43093;-78
2021/12/04 04:04:48;;;;;;;6.40;3.20;;;;;;;-4.36;100.00;98407.77;4192402;85;41806;-76
2021/12/04 04:10:52;;;;;;;6.80;3.25;;;;;;;-4.40;100.00;98411.17;4154780;84;41847;-76
2021/12/04 04:16:55;;;;;;;7.30;2.83;;;;;;;-4.54;100.00;98405.95;4119028;85;42240;-75
2021/12/04 04:22:57;;;;;;;7.95;2.98;;;;;;;-4.59;100.00;98400.34;4173567;85;42752;-75
2021/12/04 04:28:58;;;;;;;5.90;2.95;;;;;;;-4.56;100.00;98400.05;4150610;85;43377;-75
2021/12/04 04:35:08;;;;;;;7.87;3.30;;;;;;;-4.70;100.00;98393.51;4117236;86;42709;-76
2021/12/04 05:00:17;;;;;;;7.12;2.67;;;;;;;-4.96;100.00;98360.16;4124460;85;41833;-74
2021/12/04 05:12:54;;;;;;;7.58;3.02;;;;;;;-5.15;100.00;98346.69;4193699;85;42523;-75
2021/12/04 05:18:37;;;;;;;10.25;3.10;;;;;;;-5.21;100.00;98341.52;4163717;85;43219;-76
2021/12/04 05:24:36;;;;;;;8.18;3.83;;;;;;;-5.16;100.00;98325.86;4187363;83;42805;-77
2021/12/04 05:30:38;;;;;;;8.73;3.50;;;;;;;-5.28;100.00;98322.14;4134210;85;42675;-77
2021/12/04 05:36:39;;;;;;;6.47;2.80;;;;;;;-5.35;100.00;98315.36;4174794;83;41829;-77
2021/12/04 05:42:42;;;;;;;10.28;3.45;;;;;;;-5.42;100.00;98302.48;4157958;85;43238;-77
2021/12/04 05:49:02;;;;;;;12.28;3.40;;;;;;;-5.40;100.00;98308.91;4160451;85;43228;-76
2021/12/04 06:01:13;;;;;;;5.97;2.90;;;;;;;-5.37;100.00;98291.58;4226773;82;43410;-76
2021/12/04 06:07:14;;;;;;;7.85;3.25;;;;;;;-5.36;100.00;98291.44;4204398;83;42742;-77
2021/12/04 06:13:17;;;;;;;11.38;3.33;;;;;;;-5.38;100.00;98278.14;4240577;82;43220;-77
2021/12/04 06:22:37;;;;;;;8.23;3.02;;;;;;;-5.27;100.00;98283.63;4245520;82;42676;-76
2021/12/04 06:25:27;;;;;;;9.70;4.17;;;;;;;-5.26;100.00;98273.48;4221040;82;42771;-74
2021/12/04 06:31:30;;;;;;;10.20;3.85;;;;;;;-5.00;100.00;98259.66;4228987;82;43207;-77
2021/12/04 06:37:32;;;;;;;10.38;3.92;;;;;;;-4.88;100.00;98240.59;4242417;83;43297;-84
2021/12/04 06:43:36;;;;;;;10.65;4.50;;;;;;;-4.74;100.00;98245.76;4220577;84;43197;-82
2021/12/04 06:49:40;;;;;;;9.05;4.03;;;;;;;-4.52;100.00;98246.60;4246744;81;42675;-78
2021/12/04 06:55:45;;;;;;;11.48;3.77;;;;;;;-4.38;100.00;98243.88;4255709;82;43221;-79
2021/12/04 07:01:44;;;;;;;9.40;3.58;;;;;;;-4.35;100.00;98225.69;4235721;83;42797;-80
2021/12/04 07:07:45;;;;;;;9.53;3.37;;;;;;;-4.14;100.00;98216.61;4241684;83;42941;-81
2021/12/04 07:13:46;;;;;;;8.23;3.65;;;;;;;-4.13;100.00;98223.51;4196489;83;42712;-78
2021/12/04 07:19:48;;;;;;;9.55;3.50;;;;;;;-3.95;100.00;98229.51;4197874;83;42937;-77
2021/12/04 07:25:49;;;;;;;13.53;3.77;;;;;;;-3.62;100.00;98228.81;4182537;83;43285;-74
2021/12/04 07:31:51;;;;;;;12.68;4.08;;;;;;;-3.36;100.00;98233.13;4196598;83;43193;-78
2021/12/04 07:37:53;;;;;;;9.63;3.58;;;;;;;-3.05;100.00;98227.77;4197921;83;42809;-74
2021/12/04 07:43:54;;;;;;;9.15;4.08;;;;;;;-2.80;100.00;98222.83;4193613;83;42744;-77
2021/12/04 07:49:56;;;;;;;9.75;4.12;;;;;;;-2.73;100.00;98209.02;4192736;83;42760;-73
2021/12/04 07:55:58;;;;;;;8.23;3.62;;;;;;;-2.63;100.00;98207.03;4193787;83;42739;-73
2021/12/04 08:02:00;;;;;;;10.03;4.30;;;;;;;-2.42;100.00;98213.07;4187651;83;43197;-72
2021/12/04 08:08:02;;;;;;;10.45;4.47;;;;;;;-2.18;100.00;98205.28;4195328;83;43252;-73
2021/12/04 08:14:03;;;;;;;8.95;3.85;;;;;;;-1.99;100.00;98193.03;4197152;83;42714;-74
2021/12/04 08:20:06;;;;;;;11.03;4.47;;;;;;;-1.98;100.00;98191.20;4131807;85;43262;-75
2021/12/04 08:26:07;;;;;;;9.78;3.95;;;;;;;-1.67;100.00;98179.05;4122578;84;28466;-74
2021/12/04 08:32:09;;;;;;;12.68;4.28;;;;;;;-1.51;100.00;98192.16;4198984;83;43321;-76
2021/12/04 08:38:13;;;;;;;9.33;3.62;;;;;;;-1.47;100.00;98190.80;4172454;82;42735;-75
2021/12/04 08:44:16;;;;;;;8.10;4.25;;;;;;;-1.31;99.35;98179.32;4209213;83;28525;-69
2021/12/04 08:50:22;;;;;;;11.83;3.90;;;;;;;-1.09;100.00;98168.10;4143680;84;43191;-71
2021/12/04 08:56:23;;;;;;;;;;;;;;;-0.78;100.00;98170.66;4169603;84;28702;-70
2021/12/04 09:02:25;;;;;;;9.93;4.17;;;;;;;-0.57;100.00;98167.33;4095204;86;20256;-72
2021/12/04 09:08:29;;;;;;;8.70;3.87;;;;;;;-0.34;100.00;98164.27;4123527;84;42752;-72
2021/12/04 09:14:35;;;;;;;9.70;4.05;;;;;;;-0.18;98.68;98157.98;4050284;86;28551;-72
2021/12/04 09:20:36;;;;;;;10.23;3.98;;;;;;;0.03;92.36;98158.56;4140653;84;28501;-71
2021/12/04 09:26:44;;;;;;;8.88;4.20;;;;;;;0.24;100.00;98156.45;4183271;84;28555;-70
2021/12/04 10:17:34;;;;;;;11.27;5.43;;;;;;;1.79;72.98;98079.56;4185713;83;28557;-77
2021/12/04 10:23:42;;;;;;;13.08;5.65;;;;;;;1.87;73.93;98069.78;4228626;83;28489;-78
2021/12/04 10:35:49;;;;;;;17.40;6.75;;;;;;;2.17;74.97;98061.52;4192307;83;28470;-77
2021/12/04 10:41:55;;;;;;;15.70;6.22;;;;;;;2.12;73.62;98060.78;4196701;83;28505;-77
2021/12/04 10:47:58;;;;;;;14.60;5.62;;;;;;;2.18;72.64;98040.11;4193425;83;28573;-78
2021/12/04 10:54:22;;;;;;;14.60;5.78;;;;;;;2.11;73.26;98035.81;4185524;83;28466;-77
2021/12/04 11:00:37;;;;;;;11.28;4.17;;;;;;;2.12;70.29;98025.52;4194477;83;28469;-76
2021/12/04 11:19:49;;;;;;;8.40;3.65;;;;;;;2.38;65.21;97999.53;4195047;83;28548;-77
2021/12/04 11:25:56;;;;;;;6.25;3.20;;;;;;;2.42;62.92;97978.72;4208602;83;28536;-71
2021/12/04 11:38:09;;;;;;;5.55;2.45;;;;;;;2.60;60.23;97963.49;4183350;83;28494;-76
2021/12/04 11:44:10;;;;;;;;;;;;;;;2.75;56.54;97950.80;4174322;85;28549;-70
2021/12/04 11:50:20;;;;;;;3.95;2.02;;;;;;;2.92;55.10;97945.05;4180477;83;20180;-73
2021/12/04 11:56:28;;;;;;;4.67;1.98;;;;;;;3.12;53.89;97943.66;4161534;84;28511;-74
2021/12/04 12:02:31;;;;;;;6.75;2.42;;;;;;;3.30;55.17;97924.90;4203494;83;28521;-73
2021/12/04 12:08:37;;;;;;;6.35;2.15;;;;;;;3.59;56.63;97920.89;4203366;83;28499;-73
2021/12/04 12:14:51;;;;;;;5.78;2.25;;;;;;;3.64;56.04;97896.30;4205662;83;28496;-73
2021/12/04 12:20:58;;;;;;;4.87;2.00;;;;;;;3.63;54.10;97892.02;4201664;83;28510;-72
2021/12/04 12:27:26;;;;;;;4.25;2.20;;;;;;;3.70;55.02;97874.72;4203516;83;28553;-72
2021/12/04 12:39:31;;;;;;;4.05;2.00;;;;;;;3.54;53.28;97870.70;4199687;84;28458;-77
2021/12/04 12:45:35;;;;;;;4.58;2.12;;;;;;;3.56;54.82;97873.45;4209153;83;28581;-76
2021/12/04 12:51:36;;;;;;;5.03;1.95;;;;;;;3.53;54.45;97867.25;4193429;83;28474;-80
2021/12/04 12:57:43;;;;;;;8.50;3.62;;;;;;;3.43;55.14;97861.05;4186650;84;28462;-80
2021/12/04 13:17:16;;;;;;;15.93;5.03;;;;;;;3.06;57.78;97862.98;4186256;83;28460;-75
2021/12/04 13:23:22;;;;;;;12.98;4.90;;;;;;;2.87;59.21;97859.39;4191166;83;28500;-75
2021/12/04 13:29:27;;;;;;;13.20;4.70;;;;;;;2.75;59.85;97855.23;4179499;83;28506;-74
2021/12/04 13:35:28;;;;;;;13.38;3.95;;;;;;;2.62;60.98;97853.96;4193810;82;28506;-74
2021/12/04 13:41:31;;;;;;;8.00;3.55;;;;;;;2.60;61.83;97858.17;4178653;83;28540;-83
2021/12/04 13:47:33;;;;;;;8.58;3.60;;;;;;;2.48;62.38;97853.18;4193353;83;28482;-83
2021/12/04 13:53:38;;;;;;;9.40;3.52;;;;;;;2.57;62.43;97860.42;4185457;84;28498;-77
2021/12/04 13:59:43;;;;;;;7.47;3.27;;;;;;;2.58;62.63;97862.84;4170017;84;28493;-74
2021/12/04 14:05:44;;;;;;;12.50;3.60;;;;;;;2.60;62.40;97867.45;4179960;83;28573;-71
2021/12/04 14:11:46;;;;;;;9.38;3.80;;;;;;;2.59;67.03;97866.33;4183089;83;28504;-74
2021/12/04 14:17:58;;;;;;;9.55;3.60;;;;;;;2.48;72.75;97866.44;4176637;85;28458;-73
2021/12/04 14:23:59;;;;;;;10.88;3.50;;;;;;;2.36;76.20;97858.33;4180756;83;28444;-74
2021/12/04 14:30:06;;;;;;;9.40;4.10;;;;;;;2.29;73.31;97866.30;4183288;83;28505;-74
2021/12/04 14:36:08;;;;;;;11.53;4.15;;;;;;;2.38;68.58;97865.56;4207674;83;28512;-75
2021/12/04 14:42:20;;;;;;;10.58;3.47;;;;;;;2.37;67.06;97859.95;4205470;83;28579;-75
2021/12/04 14:48:34;;;;;;;9.25;3.45;;;;;;;2.30;76.27;97865.27;4206624;83;28469;-74
2021/12/04 14:54:38;;;;;;;11.08;5.17;;;;;;;2.24;74.50;97862.11;4198481;83;28522;-72
2021/12/04 15:00:46;;;;;;;9.15;3.85;;;;;;;2.26;69.68;97852.09;4193383;83;28525;-74
2021/12/04 15:06:48;;;;;;;9.78;3.83;;;;;;;2.17;70.19;97858.14;4179969;83;28457;-73
2021/12/04 15:12:55;;;;;;;13.48;4.17;;;;;;;1.94;88.25;97848.78;4161472;83;28567;-74
2021/12/04 15:19:12;;;;;;;8.58;3.72;;;;;;;1.99;76.04;97849.98;4217773;82;28542;-72
2021/12/04 15:25:16;;;;;;;9.30;3.87;;;;;;;1.87;72.92;97865.19;4228084;83;28557;-75
2021/12/04 15:31:19;;;;;;;;;;;;;;;2.13;66.03;97882.09;4207642;83;28465;-73
2021/12/04 15:37:46;;;;;;;15.63;6.40;;;;;;;2.04;68.48;97896.60;4196168;83;20251;-72
2021/12/04 15:43:59;;;;;;;15.05;6.95;;;;;;;2.36;68.20;97894.14;4198740;83;28553;-73
2021/12/04 15:55:58;;;;;;;10.75;4.85;;;;;;;2.33;85.87;97899.33;4192129;83;28505;-75
2021/12/04 16:02:01;;;;;;;8.53;4.33;;;;;;;2.31;93.73;97899.23;4192863;83;28469;-79
2021/12/04 16:08:15;;;;;;;9.00;4.30;;;;;;;2.25;97.53;97910.67;4190885;83;28462;-75
2021/12/04 16:14:17;;;;;;;9.08;3.90;;;;;;;2.19;100.00;97907.80;4195225;84;28465;-71
2021/12/04 16:20:21;;;;;;;7.28;3.55;;;;;;;2.16;100.00;97918.83;4191657;83;28500;-78
2021/12/04 16:26:27;;;;;;;6.00;2.70;;;;;;;2.16;100.00;97910.05;4200028;83;28466;-76
2021/12/04 16:38:30;;;;;;;6.00;2.87;;;;;;;2.10;100.00;97907.70;4237241;83;28581;-75
2021/12/04 16:44:32;;;;;;;5.03;2.50;;;;;;;2.03;100.00;97901.58;4238951;83;28486;-74
2021/12/04 17:03:20;;;;;;;5.75;2.98;;;;;;;1.95;100.00;97886.20;4208528;83;28486;-72
2021/12/04 17:09:24;;;;;;;7.03;3.30;;;;;;;2.02;100.00;97884.03;4200348;83;28545;-72
2021/12/04 17:15:27;;;;;;;7.17;3.37;;;;;;;2.08;100.00;97873.45;4180812;83;28528;-71
2021/12/04 17:21:30;;;;;;;8.25;3.45;;;;;;;2.03;100.00;97861.80;4187284;83;28502;-71
2021/12/04 17:27:31;;;;;;;8.40;3.58;;;;;;;2.05;100.00;97847.86;4194000;83;28526;-70
2021/12/04 17:33:32;;;;;;;7.50;3.17;;;;;;;2.04;100.00;97828.47;4190895;83;28497;-70
2021/12/04 17:39:34;;;;;;;5.75;2.60;;;;;;;2.04;100.00;97825.81;4193231;83;28536;-71
2021/12/04 17:45:37;;;;;;;6.22;2.90;;;;;;;2.06;100.00;97826.95;4195024;83;28575;-70
2021/12/04 17:51:39;;;;;;;7.45;3.20;;;;;;;2.06;100.00;97832.25;4196900;83;28472;-70
2021/12/04 17:57:41;;;;;;;6.90;3.08;;;;;;;2.08;100.00;97830.20;4202476;83;28547;-70
2021/12/04 18:03:44;;;;;;;7.20;3.10;;;;;;;2.10;100.00;97837.44;4207623;84;28524;-72
2021/12/04 18:09:49;;;;;;;5.72;3.05;;;;;;;2.12;100.00;97831.94;4208523;83;28500;-69
2021/12/04 18:16:00;;;;;;;7.25;3.20;;;;;;;2.11;100.00;97839.06;4206640;83;28472;-70
2021/12/04 18:22:02;;;;;;;6.95;3.35;;;;;;;2.10;100.00;97841.41;4197203;83;28484;-71
2021/12/04 18:28:04;;;;;;;9.73;4.00;;;;;;;2.16;100.00;97826.02;4196824;83;28513;-73
2021/12/04 18:34:06;;;;;;;8.55;4.22;;;;;;;2.15;100.00;97823.06;4194414;83;28484;-70
2021/12/04 18:40:12;;;;;;;8.85;4.08;;;;;;;2.15;100.00;97817.76;4208933;83;28520;-70
2021/12/04 18:46:15;;;;;;;10.25;4.12;;;;;;;2.15;100.00;97814.28;4210844;83;28467;-71
2021/12/04 18:52:17;;;;;;;9.75;4.72;;;;;;;2.13;100.00;97807.05;4210384;82;28509;-71
2021/12/04 18:58:18;;;;;;;14.10;5.30;;;;;;;2.15;97.35;97823.06;4207824;83;28470;-68
2021/12/04 19:04:19;;;;;;;10.32;4.50;;;;;;;2.15;95.66;97808.48;4208439;83;28565;-71
2021/12/04 19:10:22;;;;;;;12.93;5.83;;;;;;;2.16;94.71;97814.58;4211943;83;28450;-71
2021/12/04 19:16:24;;;;;;;12.58;5.75;;;;;;;2.08;98.06;97811.64;4197880;83;28540;-71
2021/12/04 19:22:27;;;;;;;13.10;6.33;;;;;;;2.01;100.00;97814.30;4200280;83;28458;-69
2021/12/04 19:28:29;;;;;;;15.55;7.03;;;;;;;1.92;100.00;97812.36;4203230;83;28560;-73
2021/12/04 19:53:47;;;;;;;17.82;8.10;;;;;;;1.97;93.91;97799.02;4201354;83;28536;-70
2021/12/04 19:59:51;;;;;;;22.45;9.45;;;;;;;1.95;94.64;97785.45;4190899;83;29581;-70
2021/12/04 20:06:05;;;;;;;20.32;8.93;;;;;;;1.90;94.47;97773.31;4191403;83;28536;-70
2021/12/04 20:18:21;;;;;;;21.75;9.28;;;;;;;1.91;97.04;97776.80;4190695;83;28501;-71
2021/12/04 20:24:31;;;;;;;22.42;9.53;;;;;;;1.88;94.17;97774.56;4193891;83;28486;-72
2021/12/04 21:52:34;;;;;;;27.30;11.73;;;;;;;1.78;83.95;97745.81;4161461;84;28498;-74
2021/12/04 22:11:09;;;;;;;27.73;11.53;;;;;;;1.82;84.95;97735.09;4210768;83;28580;-76
2021/12/04 23:01:25;;;;;;;23.10;10.72;;;;;;;1.99;80.33;97681.15;4210745;83;28584;-74
2021/12/04 23:13:46;;;;;;;19.42;7.75;;;;;;;2.03;75.66;97684.17;4221581;83;28500;-74
2021/12/04 23:32:36;;;;;;;20.32;7.45;;;;;;;2.08;70.90;97673.27;4221106;83;28514;-76
2021/12/04 23:39:06;;;;;;;17.20;7.53;;;;;;;2.08;69.69;97661.83;4214950;83;28539;-75
